Archival Weather

Eureka

Eureka, Canada (CWEU)

Report from: Wednesday, January 25, 2023 3:00 PM CST
Current time: Saturday, April 1, 2023 8:39 AM CDT

Current weather
Weather history
Weather forecast

Present weatherIce crystals
Temperature-41.0°C (-41.8°F)
Wind chill-51.8°C (-61.2°F)
Dew point-46.0°C (-50.8°F)
Winds 5 kts (2.6 m/s, 5.8 mph) Vrb
Winds variableWinds variable
Visibility7 mi. (11.3 km)
Clouds Sky clear
Altimeter29.88 in.Hg (1012 mB)
Relative humidity58 %
Density altitude-7,504 ft. (-2,287 m)
Sea-level pressure101.4 kPa (1014 mB, 29.95 in.Hg)
Flight conditions Visual Meteorological Conditions
Raw dataCWEU 252100Z VRB05KT 7SM IC SKC M41/M46 A2988 RMK IC HVY SLP142
An error has occurred. This application may no longer respond until reloaded. Reload 🗙